createdAt,value
2019-01-28T00:00:23.866Z,84.74
2019-01-28T00:02:30.666Z,84.67
2019-01-28T00:04:36.911Z,84.71
2019-01-28T00:06:43.305Z,84.80
2019-01-28T00:08:49.725Z,84.75
2019-01-28T00:10:58.566Z,84.87
2019-01-28T00:13:04.865Z,84.92
2019-01-28T00:15:13.006Z,85.04
2019-01-28T00:17:19.107Z,85.10
2019-01-28T00:19:25.748Z,85.10
2019-01-28T00:21:32.425Z,85.16
2019-01-28T00:23:39.347Z,85.09
2019-01-28T00:25:45.986Z,84.83
2019-01-28T00:27:53.866Z,84.92
2019-01-28T00:29:59.885Z,84.83
2019-01-28T00:32:06.455Z,84.77
2019-01-28T00:34:12.867Z,84.78
2019-01-28T00:36:19.167Z,84.71
2019-01-28T00:38:25.845Z,84.66
2019-01-28T00:40:33.126Z,84.55
2019-01-28T00:42:39.705Z,84.29
2019-01-28T00:44:46.028Z,84.53
2019-01-28T00:46:53.806Z,84.52
2019-01-28T00:49:01.485Z,84.52
2019-01-28T00:51:07.725Z,84.54
2019-01-28T00:53:14.665Z,84.48
2019-01-28T00:55:21.925Z,84.31
2019-01-28T00:57:29.285Z,84.21
2019-01-28T00:59:35.465Z,84.18
2019-01-28T01:01:41.826Z,84.12
2019-01-28T01:03:48.073Z,84.07
2019-01-28T01:05:54.545Z,84.07
2019-01-28T01:08:00.706Z,84.07
2019-01-28T01:10:12.026Z,84.13
2019-01-28T01:12:18.445Z,84.08
2019-01-28T01:14:24.614Z,83.84
2019-01-28T01:16:31.105Z,83.86
2019-01-28T01:18:37.594Z,83.81
2019-01-28T01:20:43.946Z,83.77
2019-01-28T01:22:50.788Z,83.80
2019-01-28T01:24:59.305Z,83.80
2019-01-28T01:27:05.846Z,83.67
2019-01-28T01:29:12.053Z,83.66
2019-01-28T01:31:18.886Z,83.57
2019-01-28T01:33:25.145Z,83.52
2019-01-28T01:35:33.513Z,83.44
2019-01-28T01:37:40.226Z,83.43
2019-01-28T01:39:47.964Z,83.49
2019-01-28T01:41:54.365Z,83.27
2019-01-28T01:44:00.625Z,83.23
2019-01-28T01:46:08.486Z,83.18
2019-01-28T01:48:14.927Z,83.29
2019-01-28T01:50:22.850Z,83.56
2019-01-28T01:52:30.065Z,83.65
2019-01-28T01:54:36.510Z,83.78
2019-01-28T01:56:43.205Z,84.00
2019-01-28T01:58:49.647Z,84.32
2019-01-28T02:00:56.105Z,84.55
2019-01-28T02:03:03.825Z,84.69
2019-01-28T02:05:10.826Z,84.88
2019-01-28T02:07:17.126Z,85.07
2019-01-28T02:09:23.606Z,85.41
2019-01-28T02:11:30.065Z,85.61
2019-01-28T02:13:36.566Z,85.78
2019-01-28T02:15:44.345Z,86.01
2019-01-28T02:17:51.345Z,86.21
2019-01-28T02:19:57.727Z,86.24
2019-01-28T02:22:04.006Z,86.28
2019-01-28T02:24:10.186Z,86.30
2019-01-28T02:26:16.506Z,86.54
2019-01-28T02:28:22.805Z,86.64
2019-01-28T02:30:29.155Z,86.77
2019-01-28T02:32:35.366Z,86.80
2019-01-28T02:34:41.565Z,86.84
2019-01-28T02:36:50.087Z,86.99
2019-01-28T02:38:56.927Z,87.04
2019-01-28T02:41:03.147Z,86.96
2019-01-28T02:43:10.525Z,87.00
2019-01-28T02:45:18.106Z,87.17
2019-01-28T02:47:24.554Z,87.20
2019-01-28T02:49:31.686Z,87.09
2019-01-28T02:51:38.731Z,86.94
2019-01-28T02:53:46.166Z,86.79
2019-01-28T02:55:54.253Z,86.83
2019-01-28T02:58:00.666Z,86.77
2019-01-28T03:00:20.105Z,86.75
2019-01-28T03:02:26.425Z,86.84
2019-01-28T03:04:34.246Z,86.92
2019-01-28T03:06:40.786Z,86.89
2019-01-28T03:08:47.105Z,86.69
2019-01-28T03:10:54.687Z,86.56
2019-01-28T03:13:03.625Z,86.54
2019-01-28T03:15:11.145Z,86.42
2019-01-28T03:17:17.385Z,86.27
2019-01-28T03:19:23.774Z,85.99
2019-01-28T03:21:30.385Z,85.66
2019-01-28T03:23:37.006Z,85.43
2019-01-28T03:25:43.267Z,85.28
2019-01-28T03:27:49.535Z,85.06
2019-01-28T03:29:56.165Z,85.03
2019-01-28T03:32:02.705Z,84.90
2019-01-28T03:34:09.387Z,84.73
2019-01-28T03:36:16.108Z,84.56
2019-01-28T03:38:22.625Z,84.54
2019-01-28T03:40:29.067Z,84.31
2019-01-28T03:42:35.987Z,84.32
2019-01-28T03:44:42.257Z,84.26
2019-01-28T03:46:48.527Z,84.29
2019-01-28T03:48:54.873Z,84.38
2019-01-28T03:51:01.129Z,84.38
2019-01-28T03:53:10.486Z,84.19
2019-01-28T03:55:16.848Z,84.16
2019-01-28T03:57:23.289Z,84.01
2019-01-28T03:59:29.927Z,84.07
2019-01-28T04:01:37.165Z,84.03
2019-01-28T04:03:43.845Z,83.88
2019-01-28T04:05:50.065Z,83.79
2019-01-28T04:07:56.565Z,83.78
2019-01-28T04:10:02.865Z,83.80
2019-01-28T04:12:09.585Z,83.45
2019-01-28T04:14:16.865Z,83.60
2019-01-28T04:16:23.208Z,83.53
2019-01-28T04:18:29.654Z,83.48
2019-01-28T04:20:36.265Z,83.32
2019-01-28T04:22:42.913Z,83.21
2019-01-28T04:24:49.486Z,83.29
2019-01-28T04:26:56.766Z,82.98
2019-01-28T04:29:03.133Z,83.19
2019-01-28T04:31:09.706Z,83.00
2019-01-28T04:33:16.301Z,83.12
2019-01-28T04:35:22.746Z,83.14
2019-01-28T04:37:29.147Z,83.38
2019-01-28T04:39:37.266Z,83.37
2019-01-28T04:41:43.527Z,83.52
2019-01-28T04:43:50.025Z,83.66
2019-01-28T04:45:56.352Z,83.73
2019-01-28T04:48:02.746Z,83.84
2019-01-28T04:50:13.105Z,83.91
2019-01-28T04:52:20.453Z,83.90
2019-01-28T04:54:27.534Z,83.81
2019-01-28T04:56:34.146Z,83.68
2019-01-28T04:58:41.265Z,83.54
2019-01-28T05:00:47.490Z,83.65
2019-01-28T05:02:53.745Z,83.42
2019-01-28T05:05:01.288Z,83.56
2019-01-28T05:07:07.935Z,83.36
2019-01-28T05:09:14.467Z,83.31
2019-01-28T05:11:20.981Z,83.13
2019-01-28T05:13:27.225Z,83.05
2019-01-28T05:15:33.886Z,82.95
2019-01-28T05:17:40.007Z,82.98
2019-01-28T05:19:46.545Z,83.14
2019-01-28T05:21:52.647Z,83.02
2019-01-28T05:23:59.226Z,83.02
2019-01-28T05:26:05.849Z,82.91
2019-01-28T05:28:13.045Z,82.92
2019-01-28T05:30:25.045Z,82.89
2019-01-28T05:32:31.425Z,82.88
2019-01-28T05:34:37.827Z,82.98
2019-01-28T05:36:45.493Z,82.94
2019-01-28T05:38:51.746Z,82.84
2019-01-28T05:40:58.246Z,82.89
2019-01-28T05:43:04.961Z,82.85
2019-01-28T05:45:17.866Z,82.93
2019-01-28T05:47:24.605Z,82.85
2019-01-28T05:49:31.657Z,83.09
2019-01-28T05:51:38.513Z,82.82
2019-01-28T05:53:44.967Z,82.81
2019-01-28T05:55:52.306Z,82.88
2019-01-28T05:57:58.885Z,82.77
2019-01-28T06:00:12.646Z,82.73
2019-01-28T06:02:19.266Z,82.70
2019-01-28T06:04:25.810Z,82.74
2019-01-28T06:06:32.506Z,82.70
2019-01-28T06:08:39.106Z,82.78
2019-01-28T06:10:45.926Z,82.83
2019-01-28T06:12:52.186Z,82.93
2019-01-28T06:14:58.506Z,82.97
2019-01-28T06:17:06.286Z,82.80
2019-01-28T06:19:14.905Z,82.91
2019-01-28T06:21:25.228Z,82.67
2019-01-28T06:23:33.565Z,82.88
2019-01-28T06:25:40.087Z,82.91
2019-01-28T06:27:46.448Z,82.88
2019-01-28T06:29:53.185Z,82.80
2019-01-28T06:32:01.526Z,82.77
2019-01-28T06:34:07.627Z,82.74
2019-01-28T06:36:14.186Z,82.63
2019-01-28T06:38:22.479Z,82.78
2019-01-28T06:40:35.385Z,82.49
2019-01-28T06:42:41.690Z,82.69
2019-01-28T06:44:47.867Z,82.31
2019-01-28T06:46:54.369Z,82.55
2019-01-28T06:49:00.767Z,82.64
2019-01-28T06:51:07.247Z,82.38
2019-01-28T06:53:13.881Z,82.30
2019-01-28T06:55:20.985Z,82.34
2019-01-28T06:57:28.945Z,82.35
2019-01-28T06:59:36.241Z,82.30
2019-01-28T07:01:43.017Z,82.15
2019-01-28T07:03:49.885Z,82.21
2019-01-28T07:05:55.986Z,82.12
2019-01-28T07:08:02.286Z,82.02
2019-01-28T07:10:11.166Z,83.13
2019-01-28T07:12:18.845Z,81.45
2019-01-28T07:14:25.342Z,86.10
2019-01-28T07:16:31.385Z,81.05
2019-01-28T07:18:39.886Z,79.71
2019-01-28T07:20:46.405Z,82.11
2019-01-28T07:22:53.846Z,79.83
2019-01-28T07:25:00.385Z,80.08
2019-01-28T07:27:08.567Z,79.53
2019-01-28T07:29:15.052Z,82.03
2019-01-28T07:31:21.606Z,80.57
2019-01-28T07:33:30.585Z,79.25
2019-01-28T07:35:37.254Z,79.50
2019-01-28T07:37:43.873Z,82.21
2019-01-28T07:39:50.248Z,79.97
2019-01-28T07:41:57.366Z,80.15
2019-01-28T07:44:04.325Z,80.43
2019-01-28T07:46:11.927Z,82.61
2019-01-28T07:48:19.845Z,79.17
2019-01-28T07:50:26.329Z,79.26
2019-01-28T07:52:32.894Z,78.63
2019-01-28T07:54:39.375Z,78.35
2019-01-28T07:56:51.865Z,79.23
2019-01-28T07:58:58.426Z,78.87
2019-01-28T08:01:04.789Z,78.87
2019-01-28T08:03:11.346Z,79.21
2019-01-28T08:05:19.645Z,79.60
2019-01-28T08:07:26.175Z,79.41
2019-01-28T08:09:32.686Z,79.75
2019-01-28T08:11:39.565Z,79.53
2019-01-28T08:13:46.126Z,80.12
2019-01-28T08:15:52.666Z,79.67
2019-01-28T08:17:59.386Z,79.71
2019-01-28T08:20:11.933Z,79.75
2019-01-28T08:22:18.805Z,79.54
2019-01-28T08:24:26.945Z,79.62
2019-01-28T08:26:33.645Z,79.60
2019-01-28T08:28:40.106Z,79.25
2019-01-28T08:30:46.768Z,79.46
2019-01-28T08:32:53.546Z,79.18
2019-01-28T08:35:00.726Z,79.57
2019-01-28T08:37:06.972Z,79.45
2019-01-28T08:39:13.528Z,79.45
2019-01-28T08:41:19.865Z,79.38
2019-01-28T08:43:26.471Z,79.13
2019-01-28T08:45:32.665Z,78.86
2019-01-28T08:47:40.031Z,78.60
2019-01-28T08:49:47.767Z,78.48
2019-01-28T08:51:53.794Z,78.57
2019-01-28T08:54:00.084Z,78.50
2019-01-28T08:56:06.426Z,78.29
2019-01-28T08:58:13.646Z,78.50
2019-01-28T09:00:23.128Z,78.58
2019-01-28T09:02:29.586Z,77.88
2019-01-28T09:04:36.406Z,78.02
2019-01-28T09:06:42.725Z,77.62
2019-01-28T09:08:49.107Z,77.91
2019-01-28T09:10:55.566Z,77.69
2019-01-28T09:13:02.226Z,77.67
2019-01-28T09:15:13.293Z,77.31
2019-01-28T09:17:19.665Z,77.85
2019-01-28T09:19:26.066Z,77.81
2019-01-28T09:21:32.827Z,77.44
2019-01-28T09:23:39.425Z,77.39
2019-01-28T09:25:47.325Z,77.33
2019-01-28T09:27:53.667Z,77.49
2019-01-28T09:30:00.049Z,77.04
2019-01-28T09:32:07.846Z,77.04
2019-01-28T09:34:14.390Z,76.94
2019-01-28T09:36:22.587Z,76.95
2019-01-28T09:38:28.805Z,77.22
2019-01-28T09:40:38.727Z,77.08
2019-01-28T09:42:45.434Z,77.24
2019-01-28T09:44:52.327Z,77.33
2019-01-28T09:46:59.566Z,77.40
2019-01-28T09:49:05.712Z,77.28
2019-01-28T09:51:12.346Z,77.25
2019-01-28T09:53:18.866Z,76.89
2019-01-28T09:55:25.234Z,76.94
2019-01-28T09:57:31.425Z,76.60
2019-01-28T09:59:38.108Z,76.23
2019-01-28T10:01:44.827Z,75.90
2019-01-28T10:03:51.186Z,75.71
2019-01-28T10:05:58.346Z,75.70
2019-01-28T10:08:05.188Z,76.66
2019-01-28T10:10:15.986Z,75.21
2019-01-28T10:12:22.267Z,75.37
2019-01-28T10:14:28.734Z,75.12
2019-01-28T10:16:40.828Z,74.94
2019-01-28T10:18:52.526Z,74.33
2019-01-28T10:20:59.345Z,74.45
2019-01-28T10:23:05.829Z,74.17
2019-01-28T10:25:12.046Z,74.50
2019-01-28T10:27:19.867Z,74.24
2019-01-28T10:29:27.666Z,74.40
2019-01-28T10:31:35.089Z,74.20
2019-01-28T10:33:43.006Z,74.42
2019-01-28T10:35:49.487Z,74.88
2019-01-28T10:37:56.107Z,75.89
2019-01-28T10:40:03.007Z,75.82
2019-01-28T10:42:10.206Z,75.94
2019-01-28T10:44:17.949Z,75.78
2019-01-28T10:46:24.486Z,76.14
2019-01-28T10:48:31.026Z,75.77
2019-01-28T10:50:38.466Z,75.67
2019-01-28T10:52:45.734Z,76.25
2019-01-28T10:54:53.792Z,76.00
2019-01-28T10:57:02.547Z,75.94
2019-01-28T10:59:10.405Z,75.98
2019-01-28T11:01:19.749Z,75.66
2019-01-28T11:03:29.226Z,75.76
2019-01-28T11:05:36.895Z,75.47
2019-01-28T11:07:44.145Z,75.39
2019-01-28T11:09:50.524Z,75.76
2019-01-28T11:11:56.833Z,76.10
2019-01-28T11:14:03.050Z,75.62
2019-01-28T11:16:10.228Z,75.47
2019-01-28T11:18:20.557Z,75.36
2019-01-28T11:20:26.731Z,75.80
2019-01-28T11:22:32.916Z,75.74
2019-01-28T11:24:39.290Z,75.44
2019-01-28T11:26:47.112Z,75.35
2019-01-28T11:28:53.771Z,75.43
2019-01-28T11:31:01.352Z,75.57
2019-01-28T11:33:08.308Z,75.79
2019-01-28T11:35:15.838Z,75.76
2019-01-28T11:37:22.432Z,75.94
2019-01-28T11:39:28.773Z,75.97
2019-01-28T11:41:36.049Z,75.78
2019-01-28T11:43:42.490Z,75.78
2019-01-28T11:46:00.448Z,75.73
2019-01-28T11:48:09.061Z,75.67
2019-01-28T11:50:18.369Z,76.22
2019-01-28T11:52:24.869Z,76.16
2019-01-28T11:54:31.190Z,75.94
2019-01-28T11:56:38.633Z,75.86
2019-01-28T11:58:46.609Z,75.74
2019-01-28T12:00:58.293Z,75.78
2019-01-28T12:03:04.668Z,75.60
2019-01-28T12:05:12.209Z,75.33
2019-01-28T12:07:18.669Z,75.35
2019-01-28T12:09:25.289Z,75.41
2019-01-28T12:11:33.488Z,75.08
2019-01-28T12:13:41.448Z,75.29
2019-01-28T12:15:47.731Z,75.57
2019-01-28T12:17:54.388Z,75.39
2019-01-28T12:20:01.943Z,75.51
2019-01-28T12:22:09.252Z,75.25
2019-01-28T12:24:16.232Z,75.37
2019-01-28T12:26:22.999Z,75.32
2019-01-28T12:28:29.469Z,75.13
2019-01-28T12:30:39.291Z,75.12
2019-01-28T12:32:47.455Z,74.87
2019-01-28T12:34:54.313Z,74.11
2019-01-28T12:37:01.330Z,74.55
2019-01-28T12:39:08.991Z,74.50
2019-01-28T12:41:17.484Z,75.05
2019-01-28T12:43:23.949Z,74.84
2019-01-28T12:45:30.793Z,74.81
2019-01-28T12:47:43.829Z,74.53
2019-01-28T12:49:53.988Z,74.55
2019-01-28T12:52:00.808Z,74.95
2019-01-28T12:54:08.868Z,74.92
2019-01-28T12:56:15.617Z,74.69
2019-01-28T12:58:22.393Z,74.77
2019-01-28T13:00:34.450Z,74.49
2019-01-28T13:02:40.991Z,74.62
2019-01-28T13:04:47.148Z,74.88
2019-01-28T13:06:54.408Z,74.76
2019-01-28T13:09:01.017Z,74.90
2019-01-28T13:11:09.348Z,75.10
2019-01-28T13:13:15.509Z,74.94
2019-01-28T13:15:25.988Z,75.16
2019-01-28T13:17:33.309Z,74.99
2019-01-28T13:19:40.184Z,74.86
2019-01-28T13:21:46.567Z,74.92
2019-01-28T13:23:54.451Z,74.86
2019-01-28T13:26:02.528Z,74.94
2019-01-28T13:28:10.233Z,74.79
2019-01-28T13:30:31.028Z,74.61
2019-01-28T13:32:38.163Z,74.86
2019-01-28T13:34:45.448Z,74.67
2019-01-28T13:36:52.367Z,74.99
2019-01-28T13:38:58.729Z,74.90
2019-01-28T13:41:05.368Z,74.96
2019-01-28T13:43:12.369Z,75.20
2019-01-28T13:45:21.549Z,75.36
2019-01-28T13:47:28.889Z,75.66
2019-01-28T13:49:38.437Z,75.83
2019-01-28T13:51:44.069Z,75.98
2019-01-28T13:53:51.970Z,76.35
2019-01-28T13:55:58.229Z,76.61
2019-01-28T13:58:04.929Z,76.82
2019-01-28T14:00:24.229Z,77.37
2019-01-28T14:02:30.690Z,77.57
2019-01-28T14:04:40.054Z,78.06
2019-01-28T14:06:46.928Z,78.36
2019-01-28T14:08:53.208Z,78.58
2019-01-28T14:10:59.550Z,79.13
2019-01-28T14:13:06.048Z,79.37
2019-01-28T14:15:17.008Z,79.63
2019-01-28T14:17:25.448Z,80.04
2019-01-28T14:19:31.808Z,80.58
2019-01-28T14:21:39.408Z,80.85
2019-01-28T14:23:45.930Z,81.10
2019-01-28T14:25:52.290Z,81.42
2019-01-28T14:31:19.392Z,81.80
2019-01-28T14:33:26.988Z,82.19
2019-01-28T14:35:33.649Z,82.58
2019-01-28T14:37:40.209Z,82.78
2019-01-28T14:39:46.808Z,82.75
2019-01-28T14:41:52.989Z,82.90
2019-01-28T14:43:59.468Z,82.95
2019-01-28T14:46:05.975Z,83.14
2019-01-28T14:48:13.068Z,83.30
2019-01-28T14:50:24.776Z,83.36
2019-01-28T14:52:31.487Z,83.52
2019-01-28T14:54:39.108Z,83.70
2019-01-28T14:56:45.812Z,83.85
2019-01-28T14:58:53.468Z,84.20
2019-01-28T15:01:00.149Z,84.12
2019-01-28T15:03:06.836Z,84.39
2019-01-28T15:05:13.968Z,84.72
2019-01-28T15:07:21.691Z,84.73
2019-01-28T15:09:28.270Z,84.86
2019-01-28T15:11:35.007Z,85.39
2019-01-28T15:13:42.989Z,85.53
2019-01-28T15:15:49.488Z,85.49
2019-01-28T15:17:57.010Z,85.46
2019-01-28T15:20:03.831Z,85.53
2019-01-28T15:22:10.528Z,85.83
2019-01-28T15:24:16.768Z,85.95
2019-01-28T15:26:23.112Z,85.93
2019-01-28T15:28:29.608Z,86.21
2019-01-28T15:30:36.437Z,86.22
2019-01-28T15:32:54.784Z,86.38
2019-01-28T15:35:01.248Z,86.61
2019-01-28T15:37:08.208Z,86.66
2019-01-28T15:39:14.467Z,86.66
2019-01-28T15:41:22.193Z,86.89
2019-01-28T15:43:29.369Z,86.99
2019-01-28T15:45:39.102Z,86.97
2019-01-28T15:47:45.468Z,86.95
2019-01-28T15:49:52.735Z,87.02
2019-01-28T15:51:59.088Z,87.18
2019-01-28T15:54:08.110Z,87.16
2019-01-28T15:56:15.129Z,87.19
2019-01-28T15:58:21.368Z,87.29
2019-01-28T16:00:36.689Z,87.42
2019-01-28T16:02:44.839Z,87.48
2019-01-28T16:04:51.237Z,87.42
2019-01-28T16:06:57.549Z,87.45
2019-01-28T16:09:05.349Z,87.71
2019-01-28T16:11:12.417Z,87.82
2019-01-28T16:13:18.929Z,87.81
2019-01-28T16:15:36.008Z,87.99
2019-01-28T16:17:42.686Z,88.06
2019-01-28T16:19:49.089Z,88.06
2019-01-28T16:21:56.373Z,88.14
2019-01-28T16:24:03.529Z,88.12
2019-01-28T16:26:10.009Z,88.46
2019-01-28T16:28:16.651Z,88.45
2019-01-28T16:30:28.609Z,88.70
2019-01-28T16:32:35.049Z,88.97
2019-01-28T16:34:56.350Z,88.96
2019-01-28T16:37:03.009Z,89.00
2019-01-28T16:39:09.748Z,89.04
2019-01-28T16:41:16.628Z,89.03
2019-01-28T16:43:23.748Z,89.10
2019-01-28T16:45:31.551Z,89.06
2019-01-28T16:47:38.008Z,89.13
2019-01-28T16:49:44.448Z,89.13
2019-01-28T16:51:51.089Z,89.18
2019-01-28T16:53:58.076Z,89.33
2019-01-28T16:56:05.116Z,89.37
2019-01-28T16:58:13.280Z,89.31
2019-01-28T17:00:29.568Z,89.25
2019-01-28T17:02:36.449Z,89.45
2019-01-28T17:04:43.030Z,89.53
2019-01-28T17:06:49.670Z,89.48
2019-01-28T17:09:01.009Z,89.48
2019-01-28T17:11:09.636Z,89.39
2019-01-28T17:13:19.770Z,89.59
2019-01-28T17:15:29.008Z,89.52
2019-01-28T17:17:35.996Z,89.60
2019-01-28T17:19:42.782Z,89.64
2019-01-28T17:21:49.549Z,89.59
2019-01-28T17:23:56.397Z,89.66
2019-01-28T17:26:03.258Z,89.63
2019-01-28T17:28:09.968Z,89.62
2019-01-28T17:30:26.630Z,89.59
2019-01-28T17:32:33.029Z,89.68
2019-01-28T17:34:42.717Z,89.74
2019-01-28T17:39:24.445Z,89.52
2019-01-28T17:41:30.951Z,89.65
2019-01-28T17:43:37.903Z,89.71
2019-01-28T17:45:44.769Z,89.80
2019-01-28T17:47:51.688Z,89.92
2019-01-28T17:52:27.488Z,89.92
2019-01-28T17:54:34.449Z,89.86
2019-01-28T17:56:42.048Z,89.87
2019-01-28T17:58:49.181Z,90.01
2019-01-28T18:00:56.910Z,89.92
2019-01-28T18:03:04.249Z,90.00
2019-01-28T18:05:11.708Z,89.95
2019-01-28T18:07:19.188Z,90.04
2019-01-28T18:09:26.489Z,89.89
2019-01-28T18:11:34.008Z,89.91
2019-01-28T18:13:40.849Z,90.09
2019-01-28T18:15:47.629Z,90.00
2019-01-28T18:18:01.528Z,90.02
2019-01-28T18:20:16.110Z,90.07
2019-01-28T18:22:23.152Z,90.17
2019-01-28T18:24:29.949Z,90.36
2019-01-28T18:26:36.501Z,90.41
2019-01-28T18:28:43.369Z,90.34
2019-01-28T18:30:51.270Z,90.49
2019-01-28T18:32:58.468Z,90.43
2019-01-28T18:35:07.834Z,90.54
2019-01-28T18:37:15.190Z,90.29
2019-01-28T18:39:22.590Z,90.16
2019-01-28T18:41:29.989Z,90.38
2019-01-28T18:43:37.288Z,90.45
2019-01-28T18:45:46.009Z,90.30
2019-01-28T18:47:52.868Z,90.18
2019-01-28T18:49:59.637Z,90.45
2019-01-28T18:52:06.368Z,90.53
2019-01-28T18:54:13.389Z,90.58
2019-01-28T18:56:19.948Z,90.54
2019-01-28T18:58:27.488Z,90.53
2019-01-28T19:00:35.737Z,90.54
2019-01-28T19:02:42.528Z,90.57
2019-01-28T19:04:50.848Z,90.52
2019-01-28T19:07:02.022Z,90.56
2019-01-28T19:09:10.988Z,90.44
2019-01-28T19:11:19.632Z,90.45
2019-01-28T19:13:34.068Z,90.35
2019-01-28T19:15:42.608Z,90.56
2019-01-28T19:17:54.015Z,90.55
2019-01-28T19:20:23.108Z,90.36
2019-01-28T19:22:29.949Z,90.37
2019-01-28T19:24:36.850Z,90.27
2019-01-28T19:26:45.049Z,90.29
2019-01-28T19:28:52.048Z,90.47
2019-01-28T19:30:58.871Z,90.53
2019-01-28T19:33:05.708Z,90.62
2019-01-28T19:35:12.677Z,90.64
2019-01-28T19:37:20.569Z,90.72
2019-01-28T19:39:27.427Z,90.71
2019-01-28T19:41:34.848Z,90.72
2019-01-28T19:43:41.835Z,90.79
2019-01-28T19:45:48.728Z,90.87
2019-01-28T19:47:55.770Z,90.89
2019-01-28T19:50:02.728Z,90.92
2019-01-28T19:52:10.055Z,90.83
2019-01-28T19:54:16.816Z,90.91
2019-01-28T19:56:23.675Z,90.96
2019-01-28T19:58:31.040Z,90.85
2019-01-28T20:00:37.589Z,90.73
2019-01-28T20:02:44.473Z,90.67
2019-01-28T20:04:51.128Z,90.71
2019-01-28T20:06:57.728Z,90.60
2019-01-28T20:09:06.309Z,90.62
2019-01-28T20:11:14.956Z,90.62
2019-01-28T20:13:21.629Z,90.74
2019-01-28T20:15:29.216Z,90.71
2019-01-28T20:17:36.570Z,90.78
2019-01-28T20:19:43.709Z,90.88
2019-01-28T20:21:50.548Z,90.83
2019-01-28T20:23:57.630Z,90.81
2019-01-28T20:26:04.497Z,90.75
2019-01-28T20:28:11.464Z,90.84
2019-01-28T20:30:27.012Z,90.88
2019-01-28T20:32:34.928Z,90.91
2019-01-28T20:34:43.484Z,90.91
2019-01-28T20:36:50.349Z,90.81
2019-01-28T20:38:58.269Z,90.80
2019-01-28T20:41:06.689Z,90.88
2019-01-28T20:43:14.069Z,91.00
2019-01-28T20:45:29.690Z,91.00
2019-01-28T20:47:39.210Z,91.08
2019-01-28T20:49:47.389Z,91.16
2019-01-28T20:51:54.481Z,91.16
2019-01-28T20:54:01.360Z,91.16
2019-01-28T20:56:09.251Z,91.15
2019-01-28T20:58:16.450Z,91.16
2019-01-28T21:00:29.024Z,91.10
2019-01-28T21:02:36.446Z,91.04
2019-01-28T21:04:43.463Z,91.06
2019-01-28T21:06:50.331Z,91.10
2019-01-28T21:08:57.729Z,91.15
2019-01-28T21:11:05.028Z,91.24
2019-01-28T21:13:11.912Z,91.29
2019-01-28T21:15:19.656Z,91.32
2019-01-28T21:17:27.461Z,91.33
2019-01-28T21:19:34.481Z,91.48
2019-01-28T21:21:41.940Z,91.53
2019-01-28T21:23:51.551Z,91.55
2019-01-28T21:25:58.913Z,91.47
2019-01-28T21:28:06.171Z,91.46
2019-01-28T21:30:22.471Z,91.49
2019-01-28T21:32:29.373Z,91.59
2019-01-28T21:34:35.991Z,91.65
2019-01-28T21:36:50.191Z,91.74
2019-01-28T21:38:56.672Z,91.82
2019-01-28T21:41:03.171Z,91.89
2019-01-28T21:43:09.738Z,91.98
2019-01-28T21:45:16.911Z,92.12
2019-01-28T21:47:23.679Z,92.26
2019-01-28T21:49:30.427Z,92.34
2019-01-28T21:51:38.450Z,92.37
2019-01-28T21:53:44.851Z,92.37
2019-01-28T21:55:51.410Z,92.40
2019-01-28T21:57:57.951Z,92.36
2019-01-28T22:00:06.198Z,92.29
2019-01-28T22:02:13.733Z,92.26
2019-01-28T22:04:20.051Z,92.30
2019-01-28T22:06:26.413Z,92.33
2019-01-28T22:08:32.971Z,92.35
2019-01-28T22:10:39.570Z,92.41
2019-01-28T22:12:45.974Z,92.47
2019-01-28T22:14:52.230Z,92.50
2019-01-28T22:16:58.830Z,92.58
2019-01-28T22:19:05.152Z,92.75
2019-01-28T22:21:12.951Z,92.89
2019-01-28T22:23:22.770Z,92.94
2019-01-28T22:25:34.092Z,93.01
2019-01-28T22:27:41.711Z,93.08
2019-01-28T22:29:52.090Z,93.15
2019-01-28T22:31:58.659Z,93.27
2019-01-28T22:34:05.131Z,93.36
2019-01-28T22:36:11.850Z,93.39
2019-01-28T22:38:18.331Z,93.45
2019-01-28T22:40:24.788Z,93.48
2019-01-28T22:42:32.749Z,93.51
2019-01-28T22:44:39.092Z,93.52
2019-01-28T22:46:45.469Z,93.53
2019-01-28T22:48:52.529Z,93.57
2019-01-28T22:50:58.828Z,93.61
2019-01-28T22:53:07.018Z,93.65
2019-01-28T22:55:20.497Z,93.67
2019-01-28T22:57:28.090Z,93.67
2019-01-28T22:59:34.609Z,93.66
2019-01-28T23:01:41.273Z,93.63
2019-01-28T23:03:48.209Z,93.61
2019-01-28T23:05:54.969Z,93.56
2019-01-28T23:08:02.611Z,93.53
2019-01-28T23:10:09.861Z,93.47
2019-01-28T23:12:16.408Z,93.41
2019-01-28T23:14:23.408Z,93.35
2019-01-28T23:16:30.448Z,93.26
2019-01-28T23:18:36.769Z,93.21
2019-01-28T23:20:44.088Z,93.19
2019-01-28T23:22:50.475Z,93.14
2019-01-28T23:24:56.969Z,93.08
2019-01-28T23:27:03.989Z,93.03
2019-01-28T23:29:11.531Z,92.98
2019-01-28T23:31:17.869Z,92.99
2019-01-28T23:33:25.748Z,93.02
2019-01-28T23:35:34.069Z,93.02
2019-01-28T23:44:07.809Z,93.10
2019-01-28T23:46:18.491Z,93.12
2019-01-28T23:48:30.868Z,93.14
2019-01-28T23:50:38.488Z,93.13
2019-01-28T23:52:44.788Z,93.17
2019-01-28T23:54:51.059Z,93.16
2019-01-28T23:56:58.249Z,93.14
2019-01-28T23:59:05.868Z,93.11
